Time;durP1;ratioP1;P1;durP2;ratioP2;P2;SDS_P1;SDS_P2;PMS_P1;PMS_P2;Temp;Humidity;BMP_temperature;BMP_pressure;BME280_temperature;BME280_humidity;BME280_pressure;Samples;Min_cycle;Max_cycle;Signal;HPM_P1;HPM_P2
2023/12/21 00:00:16;;;;;;;2.78;1.83;;;6.70;99.90;;;;;;2076397;28;20033;-79
2023/12/21 00:01:16;;;;;;;2.50;1.50;;;6.70;99.90;;;;;;2070559;28;20455;-79
2023/12/21 00:02:17;;;;;;;3.03;1.58;;;6.70;99.90;;;;;;2072164;28;20046;-77
2023/12/21 00:03:18;;;;;;;2.33;1.63;;;6.70;99.90;;;;;;2075525;28;20083;-79
2023/12/21 00:04:18;;;;;;;3.53;1.50;;;6.70;99.90;;;;;;2076001;28;20057;-79
2023/12/21 00:05:19;;;;;;;2.15;1.50;;;6.70;99.90;;;;;;2075956;28;20494;-79
2023/12/21 00:06:19;;;;;;;4.50;1.83;;;6.60;99.90;;;;;;2077328;28;20033;-79
2023/12/21 00:07:20;;;;;;;3.00;1.60;;;6.60;99.90;;;;;;2072640;28;20139;-79
2023/12/21 00:08:21;;;;;;;1.75;1.52;;;6.60;99.90;;;;;;2072919;28;20055;-80
2023/12/21 00:09:21;;;;;;;3.85;1.70;;;6.60;99.90;;;;;;2074073;28;20169;-79
2023/12/21 00:10:22;;;;;;;2.13;1.70;;;6.60;99.90;;;;;;2075596;28;20024;-79
2023/12/21 00:11:22;;;;;;;2.25;1.52;;;6.50;99.90;;;;;;2075953;28;20026;-78
2023/12/21 00:12:24;;;;;;;2.97;1.70;;;6.60;99.90;;;;;;2076254;28;20031;-79
2023/12/21 00:13:26;;;;;;;4.13;1.77;;;6.50;99.90;;;;;;2058721;28;20220;-79
2023/12/21 00:14:30;;;;;;;1.50;1.40;;;6.60;99.90;;;;;;2070876;28;20021;-77
2023/12/21 00:15:30;;;;;;;2.22;1.50;;;6.60;99.90;;;;;;2081845;28;20032;-78
2023/12/21 00:16:31;;;;;;;1.63;1.50;;;6.60;99.90;;;;;;2075548;28;20044;-78
2023/12/21 00:17:31;;;;;;;1.95;1.50;;;6.60;99.90;;;;;;2074893;28;20174;-81
2023/12/21 00:18:32;;;;;;;1.52;1.33;;;6.50;99.90;;;;;;2073224;28;20099;-80
2023/12/21 00:19:32;;;;;;;1.98;1.33;;;6.50;99.90;;;;;;2073266;28;20022;-79
2023/12/21 00:20:33;;;;;;;1.98;1.50;;;6.50;99.90;;;;;;2079406;28;20025;-81
2023/12/21 00:21:33;;;;;;;2.25;1.60;;;6.50;99.90;;;;;;2074525;28;20025;-79
2023/12/21 00:22:34;;;;;;;1.90;1.58;;;6.50;99.90;;;;;;2075634;28;20321;-79
2023/12/21 00:23:34;;;;;;;1.88;1.60;;;6.50;99.90;;;;;;2076183;28;20514;-78
2023/12/21 00:24:35;;;;;;;1.60;1.50;;;6.50;99.90;;;;;;2074343;28;20028;-80
2023/12/21 00:25:35;;;;;;;1.90;1.50;;;6.50;99.90;;;;;;2075706;28;20021;-79
2023/12/21 00:26:36;;;;;;;2.30;1.42;;;6.50;99.90;;;;;;2073718;28;20504;-79
2023/12/21 00:27:37;;;;;;;2.30;1.42;;;6.50;99.90;;;;;;2082521;28;20041;-78
2023/12/21 00:28:37;;;;;;;1.77;1.40;;;6.50;99.90;;;;;;2076137;28;20033;-78
2023/12/21 00:29:38;;;;;;;3.40;1.40;;;6.50;99.90;;;;;;2084689;28;20059;-80
2023/12/21 00:30:39;;;;;;;2.53;1.60;;;6.50;99.90;;;;;;2082800;28;20066;-77
2023/12/21 00:31:40;;;;;;;2.05;1.50;;;6.50;99.90;;;;;;2069762;28;20459;-76
2023/12/21 00:32:40;;;;;;;2.40;1.60;;;6.50;99.90;;;;;;2063915;28;20030;-79
2023/12/21 00:33:42;;;;;;;2.95;1.40;;;6.50;99.90;;;;;;2080996;28;20017;-77
2023/12/21 00:34:42;;;;;;;2.33;1.65;;;6.50;99.90;;;;;;2080640;28;20060;-77
2023/12/21 00:35:43;;;;;;;1.83;1.45;;;6.50;99.90;;;;;;2081084;28;20029;-79
2023/12/21 00:36:46;;;;;;;3.15;1.40;;;6.50;99.90;;;;;;2081188;28;20021;-77
2023/12/21 00:37:47;;;;;;;1.65;1.40;;;6.50;99.90;;;;;;2080679;28;20024;-81
2023/12/21 00:38:47;;;;;;;2.63;1.33;;;6.50;99.90;;;;;;2086996;28;20233;-78
2023/12/21 00:39:48;;;;;;;2.10;1.52;;;6.50;99.90;;;;;;2081008;28;20061;-79
2023/12/21 00:40:48;;;;;;;1.85;1.35;;;6.50;99.90;;;;;;2077682;28;20049;-78
2023/12/21 00:41:49;;;;;;;2.35;1.42;;;6.50;99.90;;;;;;2077039;28;20040;-78
2023/12/21 00:42:49;;;;;;;1.88;1.33;;;6.50;99.90;;;;;;2079175;28;20100;-78
2023/12/21 00:43:50;;;;;;;1.63;1.20;;;6.50;99.90;;;;;;2074738;28;20468;-78
2023/12/21 00:44:50;;;;;;;2.03;1.23;;;6.50;99.90;;;;;;2076343;28;20117;-77
2023/12/21 00:45:51;;;;;;;1.30;1.20;;;6.50;99.90;;;;;;2080139;28;20082;-78
2023/12/21 00:46:51;;;;;;;1.73;1.30;;;6.60;99.90;;;;;;2077874;28;20210;-78
2023/12/21 00:47:52;;;;;;;1.40;1.30;;;6.60;99.90;;;;;;2080169;28;20537;-80
2023/12/21 00:48:53;;;;;;;1.80;1.20;;;6.60;99.90;;;;;;2078931;28;20063;-78
2023/12/21 00:49:54;;;;;;;2.55;1.30;;;6.60;99.90;;;;;;2078987;28;20063;-78
2023/12/21 00:50:54;;;;;;;1.58;1.20;;;6.60;99.90;;;;;;2079506;28;20032;-79
2023/12/21 00:51:55;;;;;;;1.20;1.10;;;6.60;99.90;;;;;;2083145;28;20053;-78
2023/12/21 00:52:55;;;;;;;1.83;1.38;;;6.60;99.90;;;;;;2075367;28;20064;-78
2023/12/21 00:53:56;;;;;;;1.35;1.15;;;6.60;99.90;;;;;;2084610;28;20021;-78
2023/12/21 00:54:57;;;;;;;1.52;1.10;;;6.70;99.90;;;;;;2079257;28;20025;-79
2023/12/21 00:55:57;;;;;;;1.95;1.23;;;6.70;99.90;;;;;;2075090;28;20052;-76
2023/12/21 00:56:58;;;;;;;2.33;1.23;;;6.60;99.90;;;;;;2078174;28;20052;-75
2023/12/21 00:57:59;;;;;;;1.92;1.05;;;6.60;99.90;;;;;;2077926;28;20419;-75
2023/12/21 00:58:59;;;;;;;1.00;1.00;;;6.60;99.90;;;;;;2084674;28;20491;-74
2023/12/21 01:00:00;;;;;;;1.30;1.20;;;6.60;99.90;;;;;;2077884;28;20097;-72
2023/12/21 01:01:00;;;;;;;1.65;1.08;;;6.60;99.90;;;;;;2075044;28;20040;-76
2023/12/21 01:02:02;;;;;;;1.20;1.10;;;6.70;99.90;;;;;;2069993;28;20104;-75
2023/12/21 01:03:03;;;;;;;1.50;1.10;;;6.70;99.90;;;;;;2073127;28;20112;-75
2023/12/21 01:04:04;;;;;;;1.40;1.13;;;6.70;99.90;;;;;;2058425;28;20061;-75
2023/12/21 01:05:05;;;;;;;1.17;1.00;;;6.70;99.90;;;;;;2066378;28;20057;-75
2023/12/21 01:06:05;;;;;;;1.05;1.05;;;6.70;99.90;;;;;;2086942;28;20062;-76
2023/12/21 01:07:06;;;;;;;1.00;1.00;;;6.70;99.90;;;;;;2079583;28;20029;-76
2023/12/21 01:08:07;;;;;;;1.00;1.00;;;6.70;99.90;;;;;;2078721;28;20026;-76
2023/12/21 01:09:08;;;;;;;1.20;1.10;;;6.70;99.90;;;;;;2079400;28;20089;-75
2023/12/21 01:10:09;;;;;;;1.17;1.00;;;6.60;99.90;;;;;;2083631;28;20167;-76
2023/12/21 01:11:10;;;;;;;1.00;1.00;;;6.60;99.90;;;;;;2082516;28;20639;-75
2023/12/21 01:12:11;;;;;;;1.23;0.95;;;6.70;99.90;;;;;;2075400;28;20057;-76
2023/12/21 01:13:12;;;;;;;1.52;1.00;;;6.70;99.90;;;;;;2083777;28;20478;-76
2023/12/21 01:14:13;;;;;;;1.42;1.00;;;6.70;99.90;;;;;;2083132;28;20128;-75
2023/12/21 01:15:13;;;;;;;0.98;0.98;;;6.70;99.90;;;;;;2078513;28;20112;-75
2023/12/21 01:16:16;;;;;;;1.02;1.02;;;6.80;99.90;;;;;;2075286;28;20041;-76
2023/12/21 01:17:16;;;;;;;0.90;0.90;;;6.80;99.90;;;;;;2079046;28;20036;-76
2023/12/21 01:18:17;;;;;;;0.90;0.90;;;6.80;99.90;;;;;;2078604;28;20538;-76
2023/12/21 01:19:17;;;;;;;1.13;0.82;;;6.80;99.90;;;;;;2075779;28;20037;-75
2023/12/21 01:20:18;;;;;;;1.05;0.90;;;6.80;99.90;;;;;;2078473;28;20078;-76
2023/12/21 01:21:19;;;;;;;1.10;1.00;;;6.80;99.90;;;;;;2075532;28;20043;-76
2023/12/21 01:22:19;;;;;;;0.90;0.90;;;6.80;99.90;;;;;;2074269;28;20044;-76
2023/12/21 01:23:20;;;;;;;0.80;0.80;;;6.80;99.90;;;;;;2078350;28;20434;-76
2023/12/21 01:24:20;;;;;;;0.90;0.90;;;6.80;99.90;;;;;;2075091;28;20065;-75
2023/12/21 01:25:21;;;;;;;0.80;0.80;;;6.80;99.90;;;;;;2075886;28;20037;-76
2023/12/21 01:26:21;;;;;;;0.90;0.90;;;6.80;99.90;;;;;;2076569;28;20783;-75
2023/12/21 01:27:22;;;;;;;1.05;0.80;;;6.90;99.90;;;;;;2076228;28;20030;-76
2023/12/21 01:28:22;;;;;;;0.80;0.80;;;6.90;99.90;;;;;;2077064;28;20068;-76
2023/12/21 01:29:23;;;;;;;0.93;0.90;;;6.90;99.90;;;;;;2075995;28;20033;-75
2023/12/21 01:30:24;;;;;;;0.93;0.90;;;6.90;99.90;;;;;;2077870;28;20463;-74
2023/12/21 01:31:24;;;;;;;0.80;0.80;;;6.90;99.90;;;;;;2071382;28;20037;-75
2023/12/21 01:32:26;;;;;;;0.80;0.80;;;6.90;99.90;;;;;;2074399;28;20024;-76
2023/12/21 01:33:26;;;;;;;0.80;0.80;;;7.00;99.90;;;;;;2076761;28;20387;-77
2023/12/21 01:34:27;;;;;;;0.70;0.70;;;7.00;99.90;;;;;;2075481;28;20057;-76
2023/12/21 01:35:27;;;;;;;0.80;0.80;;;7.00;99.90;;;;;;2076433;28;20029;-76
2023/12/21 01:36:28;;;;;;;0.75;0.65;;;7.00;99.90;;;;;;2075687;28;20033;-77
2023/12/21 01:37:29;;;;;;;0.95;0.80;;;7.00;99.90;;;;;;2079244;28;20048;-76
2023/12/21 01:38:29;;;;;;;1.00;1.00;;;7.10;99.90;;;;;;2076379;28;20026;-77
2023/12/21 01:39:30;;;;;;;0.68;0.68;;;7.00;99.90;;;;;;2076996;28;20124;-76
2023/12/21 01:40:30;;;;;;;4.32;0.80;;;7.00;99.90;;;;;;2077290;28;20304;-76
2023/12/21 01:41:31;;;;;;;0.82;0.80;;;7.00;99.90;;;;;;2080311;28;20052;-77
2023/12/21 01:42:31;;;;;;;1.27;0.80;;;7.00;99.90;;;;;;2077819;28;20021;-76
2023/12/21 01:43:32;;;;;;;1.20;0.70;;;7.00;99.90;;;;;;2076185;28;20083;-76
2023/12/21 01:44:32;;;;;;;1.05;0.80;;;7.00;99.90;;;;;;2081020;28;20041;-76
2023/12/21 01:45:33;;;;;;;0.80;0.80;;;7.00;99.90;;;;;;2080332;28;20033;-76
2023/12/21 01:46:34;;;;;;;1.13;0.80;;;7.00;99.90;;;;;;2077148;28;20048;-76
2023/12/21 01:47:35;;;;;;;0.80;0.80;;;7.00;99.90;;;;;;2076673;28;20033;-76
2023/12/21 01:48:36;;;;;;;0.80;0.80;;;7.00;99.90;;;;;;2080792;28;20025;-77
2023/12/21 01:49:37;;;;;;;0.90;0.80;;;7.00;99.90;;;;;;2076234;28;20159;-75
2023/12/21 01:50:38;;;;;;;0.80;0.80;;;7.00;99.90;;;;;;2075849;28;20610;-75
2023/12/21 01:51:39;;;;;;;0.63;0.63;;;7.00;99.90;;;;;;2076234;28;20033;-78
2023/12/21 01:52:41;;;;;;;0.70;0.70;;;7.10;99.90;;;;;;2079342;28;20439;-77
2023/12/21 01:53:43;;;;;;;0.75;0.75;;;7.10;99.90;;;;;;2080354;28;20036;-76
2023/12/21 01:54:43;;;;;;;0.88;0.70;;;7.10;99.90;;;;;;2084885;28;20087;-76
2023/12/21 01:55:45;;;;;;;0.80;0.80;;;7.10;99.90;;;;;;2079663;28;20062;-75
2023/12/21 01:56:46;;;;;;;0.80;0.80;;;7.10;99.90;;;;;;2080496;28;20029;-76
2023/12/21 01:57:46;;;;;;;0.60;0.60;;;7.10;99.90;;;;;;2077735;28;20112;-76
2023/12/21 01:58:49;;;;;;;0.63;0.63;;;7.10;99.90;;;;;;2079280;28;20018;-76
2023/12/21 01:59:51;;;;;;;0.80;0.80;;;7.10;99.90;;;;;;2080472;28;20554;-75
2023/12/21 02:00:56;;;;;;;0.82;0.73;;;7.10;99.90;;;;;;2072323;28;20527;-76
2023/12/21 02:01:57;;;;;;;0.68;0.68;;;7.10;99.90;;;;;;2078370;28;20029;-76
2023/12/21 02:02:58;;;;;;;1.05;0.70;;;7.10;99.90;;;;;;2077688;28;20424;-76
2023/12/21 02:03:59;;;;;;;0.75;0.70;;;7.10;99.90;;;;;;2080861;28;20059;-76
2023/12/21 02:05:00;;;;;;;0.70;0.70;;;7.10;99.90;;;;;;2075713;28;20618;-76
2023/12/21 02:06:00;;;;;;;0.70;0.70;;;7.10;99.90;;;;;;2075821;28;20068;-76
2023/12/21 02:07:01;;;;;;;1.17;0.70;;;7.10;99.90;;;;;;2087903;28;20119;-75
2023/12/21 02:08:02;;;;;;;0.60;0.60;;;7.10;99.90;;;;;;2087402;28;20039;-75
2023/12/21 02:09:02;;;;;;;0.75;0.70;;;7.00;99.90;;;;;;2077352;28;20030;-76
2023/12/21 02:10:03;;;;;;;0.77;0.77;;;7.00;99.90;;;;;;2087840;28;20029;-75
2023/12/21 02:11:09;;;;;;;0.77;0.70;;;7.00;99.90;;;;;;2087757;28;20048;-75
2023/12/21 02:12:10;;;;;;;0.60;0.60;;;7.00;99.90;;;;;;2072561;28;20025;-75
2023/12/21 02:13:10;;;;;;;0.63;0.60;;;7.00;99.90;;;;;;2080268;28;20112;-76
2023/12/21 02:14:11;;;;;;;0.77;0.70;;;7.10;99.90;;;;;;2080656;28;20025;-77
2023/12/21 02:15:12;;;;;;;0.70;0.70;;;7.10;99.90;;;;;;2076988;28;20380;-77
2023/12/21 02:16:19;;;;;;;0.77;0.77;;;7.00;99.90;;;;;;2079887;28;20093;-78
2023/12/21 02:17:21;;;;;;;0.93;0.77;;;7.00;99.90;;;;;;2087915;28;20144;-76
2023/12/21 02:18:22;;;;;;;1.42;0.70;;;7.00;99.90;;;;;;2085769;28;20040;-77
2023/12/21 02:19:23;;;;;;;0.80;0.80;;;6.90;99.90;;;;;;2086042;28;20056;-77
2023/12/21 02:20:24;;;;;;;0.77;0.70;;;6.90;99.90;;;;;;2079807;28;20195;-76
2023/12/21 02:21:26;;;;;;;0.63;0.63;;;6.90;99.90;;;;;;2078027;28;20487;-77
2023/12/21 02:22:28;;;;;;;0.73;0.68;;;6.90;99.90;;;;;;2076934;28;20172;-77
2023/12/21 02:23:31;;;;;;;1.15;0.70;;;6.90;99.90;;;;;;2079965;28;20303;-77
2023/12/21 02:24:32;;;;;;;1.30;0.77;;;6.90;99.90;;;;;;2086651;28;20229;-77
2023/12/21 02:25:32;;;;;;;0.70;0.70;;;6.90;99.90;;;;;;2076521;28;20638;-77
2023/12/21 02:26:33;;;;;;;0.70;0.60;;;6.90;99.90;;;;;;2079845;28;20057;-77
2023/12/21 02:27:33;;;;;;;0.73;0.68;;;6.90;99.90;;;;;;2080421;28;20438;-77
2023/12/21 02:28:34;;;;;;;0.98;0.75;;;6.90;99.90;;;;;;2071097;28;20122;-77
2023/12/21 02:29:34;;;;;;;0.85;0.70;;;6.90;99.90;;;;;;2070603;28;20022;-77
2023/12/21 02:30:35;;;;;;;0.70;0.70;;;7.00;99.90;;;;;;2087636;28;20089;-78
2023/12/21 02:31:36;;;;;;;0.70;0.70;;;7.00;99.90;;;;;;2075811;28;20059;-77
2023/12/21 02:32:37;;;;;;;1.05;0.70;;;6.90;99.90;;;;;;2081315;28;20246;-77
2023/12/21 02:33:38;;;;;;;0.70;0.70;;;6.90;99.90;;;;;;2067733;28;20431;-77
2023/12/21 02:34:39;;;;;;;0.82;0.82;;;7.00;99.90;;;;;;2067727;28;20033;-77
2023/12/21 02:35:39;;;;;;;0.68;0.68;;;7.00;99.90;;;;;;2087889;28;20033;-76
2023/12/21 02:36:40;;;;;;;2.65;0.70;;;7.00;99.90;;;;;;2092252;28;20089;-77
2023/12/21 02:37:40;;;;;;;0.70;0.70;;;7.00;99.90;;;;;;2076776;28;20154;-76
2023/12/21 02:38:41;;;;;;;0.70;0.70;;;7.00;99.90;;;;;;2079886;28;20036;-76
2023/12/21 02:39:41;;;;;;;0.70;0.70;;;7.00;99.90;;;;;;2080044;28;20036;-77
2023/12/21 02:40:42;;;;;;;1.30;0.60;;;7.00;99.90;;;;;;2075949;28;20033;-76
2023/12/21 02:41:42;;;;;;;0.95;0.70;;;7.00;99.90;;;;;;2079368;28;20030;-76
2023/12/21 02:42:43;;;;;;;0.63;0.63;;;7.00;99.90;;;;;;2079406;28;20098;-76
2023/12/21 02:43:43;;;;;;;1.30;0.60;;;7.00;99.90;;;;;;2076109;28;20160;-76
2023/12/21 02:44:44;;;;;;;0.80;0.80;;;7.00;99.90;;;;;;2087161;28;20112;-76
2023/12/21 02:45:45;;;;;;;0.75;0.75;;;7.00;99.90;;;;;;2079462;28;20028;-76
2023/12/21 02:46:45;;;;;;;0.73;0.70;;;7.00;99.90;;;;;;2076390;28;20052;-75
2023/12/21 02:47:46;;;;;;;0.60;0.60;;;7.00;99.90;;;;;;2073823;28;20514;-75
2023/12/21 02:48:46;;;;;;;1.40;0.75;;;6.90;99.90;;;;;;2079848;28;20440;-77
2023/12/21 02:49:47;;;;;;;0.70;0.70;;;6.90;99.90;;;;;;2076473;28;20034;-76
2023/12/21 02:50:47;;;;;;;0.80;0.80;;;6.90;99.90;;;;;;2079365;28;20021;-76
2023/12/21 02:51:48;;;;;;;1.50;0.70;;;6.80;99.90;;;;;;2079107;28;20057;-77
2023/12/21 02:52:48;;;;;;;1.23;0.70;;;6.80;99.90;;;;;;2087659;28;20525;-76
2023/12/21 02:53:49;;;;;;;0.80;0.80;;;6.80;99.90;;;;;;2076833;28;20040;-77
2023/12/21 02:54:50;;;;;;;0.70;0.70;;;6.80;99.90;;;;;;2078171;28;20137;-76
2023/12/21 02:55:50;;;;;;;1.08;0.70;;;6.90;99.90;;;;;;2087862;28;20031;-77
2023/12/21 02:56:51;;;;;;;1.10;0.80;;;6.90;99.90;;;;;;2076001;28;20109;-75
2023/12/21 02:57:52;;;;;;;0.70;0.70;;;6.90;99.90;;;;;;2086197;28;20033;-76
2023/12/21 02:58:52;;;;;;;0.75;0.75;;;6.90;99.90;;;;;;2087265;28;20034;-77
2023/12/21 02:59:53;;;;;;;2.15;0.70;;;6.90;99.90;;;;;;2077000;28;20018;-77
2023/12/21 03:00:53;;;;;;;0.70;0.70;;;6.90;99.90;;;;;;2077645;28;20097;-77
2023/12/21 03:01:54;;;;;;;0.80;0.80;;;6.90;99.90;;;;;;2079465;28;20013;-75
2023/12/21 03:02:54;;;;;;;0.70;0.65;;;6.90;99.90;;;;;;2068853;28;20104;-75
2023/12/21 03:03:55;;;;;;;1.02;0.70;;;6.90;99.90;;;;;;2069353;28;20033;-77
2023/12/21 03:04:56;;;;;;;0.90;0.80;;;6.90;99.90;;;;;;2079455;28;20672;-76
2023/12/21 03:05:56;;;;;;;0.77;0.77;;;6.90;99.90;;;;;;2077693;28;20055;-76
2023/12/21 03:06:57;;;;;;;0.70;0.70;;;6.80;99.90;;;;;;2076809;28;20431;-76
2023/12/21 03:07:57;;;;;;;0.85;0.70;;;6.80;99.90;;;;;;2084389;28;20037;-77
2023/12/21 03:08:58;;;;;;;0.80;0.80;;;6.80;99.90;;;;;;2075201;28;20117;-76
2023/12/21 03:09:58;;;;;;;0.70;0.70;;;6.80;99.90;;;;;;2079673;28;20040;-76
2023/12/21 03:10:59;;;;;;;0.93;0.80;;;6.80;99.90;;;;;;2078048;28;20459;-76
2023/12/21 03:11:59;;;;;;;0.60;0.60;;;6.80;99.90;;;;;;2077179;28;20033;-75
2023/12/21 03:13:00;;;;;;;1.08;0.60;;;6.80;99.90;;;;;;2080565;28;20673;-77
2023/12/21 03:14:00;;;;;;;1.25;0.68;;;6.80;99.90;;;;;;2078344;28;20410;-76
2023/12/21 03:15:01;;;;;;;0.77;0.77;;;6.80;99.90;;;;;;2076848;28;20118;-75
2023/12/21 03:16:09;;;;;;;0.60;0.60;;;6.80;99.90;;;;;;2076199;28;20029;-76
2023/12/21 03:17:10;;;;;;;0.70;0.70;;;6.70;99.90;;;;;;2076572;28;20392;-76
2023/12/21 03:18:12;;;;;;;0.75;0.70;;;6.70;99.90;;;;;;2075952;28;20061;-77
2023/12/21 03:19:12;;;;;;;0.63;0.63;;;6.70;99.90;;;;;;2079743;28;20049;-77
2023/12/21 03:20:13;;;;;;;0.60;0.60;;;6.70;99.90;;;;;;2076481;28;20025;-77
2023/12/21 03:21:15;;;;;;;1.35;0.80;;;6.70;99.90;;;;;;2076385;28;20037;-77
2023/12/21 03:22:15;;;;;;;0.70;0.70;;;6.70;99.90;;;;;;2079386;28;20046;-77
2023/12/21 03:23:16;;;;;;;0.60;0.60;;;6.80;99.90;;;;;;2079421;28;20075;-77
2023/12/21 03:24:16;;;;;;;0.70;0.70;;;6.80;99.90;;;;;;2066995;28;20072;-77
2023/12/21 03:25:17;;;;;;;0.70;0.70;;;6.80;99.90;;;;;;2066925;28;20041;-77
2023/12/21 03:26:17;;;;;;;0.68;0.68;;;6.80;99.90;;;;;;2079241;28;20069;-77
2023/12/21 03:27:18;;;;;;;0.60;0.60;;;6.80;99.90;;;;;;2076204;28;20099;-77
2023/12/21 03:28:20;;;;;;;0.68;0.68;;;6.80;99.90;;;;;;2078420;28;20056;-77
2023/12/21 03:29:20;;;;;;;0.70;0.70;;;6.80;99.90;;;;;;2077748;28;20345;-76
2023/12/21 03:30:21;;;;;;;0.73;0.73;;;6.80;99.90;;;;;;2076182;28;20292;-77
2023/12/21 03:31:21;;;;;;;0.68;0.68;;;6.80;99.90;;;;;;2075616;28;20029;-77
2023/12/21 03:32:22;;;;;;;1.30;0.75;;;6.80;99.90;;;;;;2081936;28;20021;-77
2023/12/21 03:33:22;;;;;;;0.70;0.70;;;6.80;99.90;;;;;;2079140;28;20080;-78
2023/12/21 03:34:23;;;;;;;0.85;0.70;;;6.80;99.90;;;;;;2058802;28;20041;-77
2023/12/21 03:35:24;;;;;;;0.70;0.70;;;6.80;99.90;;;;;;2067116;28;20030;-77
2023/12/21 03:36:26;;;;;;;0.70;0.70;;;6.80;99.90;;;;;;2079215;28;20406;-77
2023/12/21 03:37:28;;;;;;;0.60;0.60;;;6.80;99.90;;;;;;2076983;28;20029;-77
2023/12/21 03:38:29;;;;;;;0.52;0.52;;;6.80;99.90;;;;;;2077642;28;20401;-76
2023/12/21 03:39:29;;;;;;;2.13;0.80;;;6.80;99.90;;;;;;2076697;28;20033;-76
2023/12/21 03:40:30;;;;;;;0.68;0.60;;;6.80;99.90;;;;;;2078942;28;20029;-77
2023/12/21 03:41:30;;;;;;;0.63;0.63;;;6.80;99.90;;;;;;2075279;28;21113;-77
2023/12/21 03:42:31;;;;;;;1.65;0.70;;;6.80;99.90;;;;;;2075811;28;20025;-77
2023/12/21 03:43:31;;;;;;;0.60;0.60;;;6.90;99.90;;;;;;2078535;28;20029;-76
2023/12/21 03:44:32;;;;;;;1.20;0.73;;;6.90;99.90;;;;;;2078553;28;20113;-76
2023/12/21 03:45:35;;;;;;;1.23;0.65;;;6.90;99.90;;;;;;2077355;28;20130;-76
2023/12/21 03:46:35;;;;;;;0.65;0.65;;;6.90;99.90;;;;;;2079817;28;20119;-76
2023/12/21 03:47:36;;;;;;;0.60;0.60;;;6.80;99.90;;;;;;2078946;28;20041;-76
2023/12/21 03:48:36;;;;;;;0.70;0.70;;;6.80;99.90;;;;;;2076588;28;20060;-75
2023/12/21 03:49:37;;;;;;;1.17;0.80;;;6.80;99.90;;;;;;2078990;28;20045;-76
2023/12/21 03:50:38;;;;;;;0.70;0.70;;;6.80;99.90;;;;;;2075250;28;20036;-76
2023/12/21 03:51:38;;;;;;;0.93;0.70;;;6.90;99.90;;;;;;2075491;28;20056;-76
2023/12/21 03:52:39;;;;;;;1.02;0.60;;;6.90;99.90;;;;;;2066839;28;20546;-77
2023/12/21 03:53:39;;;;;;;0.60;0.60;;;6.90;99.90;;;;;;2062856;28;20467;-76
2023/12/21 03:54:40;;;;;;;0.75;0.70;;;6.90;99.90;;;;;;2079263;28;20033;-75
2023/12/21 03:55:41;;;;;;;0.70;0.70;;;6.80;99.90;;;;;;2075899;28;20033;-77
2023/12/21 03:56:41;;;;;;;0.70;0.70;;;6.80;99.90;;;;;;2076391;28;20053;-77
2023/12/21 03:57:42;;;;;;;0.70;0.70;;;6.80;99.90;;;;;;2075003;28;20036;-75
2023/12/21 03:58:42;;;;;;;0.85;0.85;;;6.80;99.90;;;;;;2071967;28;20292;-76
2023/12/21 03:59:43;;;;;;;1.30;0.90;;;6.80;99.90;;;;;;2079869;28;20099;-76
2023/12/21 04:00:43;;;;;;;0.80;0.80;;;6.80;99.90;;;;;;2079383;28;20414;-76
2023/12/21 04:01:44;;;;;;;0.75;0.75;;;6.80;99.90;;;;;;2075687;28;20034;-76
2023/12/21 04:02:48;;;;;;;0.70;0.70;;;6.80;99.90;;;;;;2086788;28;20021;-76
2023/12/21 04:03:48;;;;;;;0.70;0.70;;;6.80;99.90;;;;;;2079036;28;20108;-76
2023/12/21 04:04:49;;;;;;;0.70;0.70;;;6.80;99.90;;;;;;2075063;28;20277;-75
2023/12/21 04:05:50;;;;;;;0.70;0.70;;;6.80;99.90;;;;;;2086344;28;20060;-76
2023/12/21 04:06:50;;;;;;;0.80;0.80;;;6.80;99.90;;;;;;2078621;28;20036;-77
2023/12/21 04:07:51;;;;;;;0.70;0.70;;;6.90;99.90;;;;;;2075964;28;20029;-76
2023/12/21 04:08:54;;;;;;;0.80;0.80;;;6.90;99.90;;;;;;2078605;28;20433;-76
2023/12/21 04:09:54;;;;;;;0.70;0.70;;;6.90;99.90;;;;;;2074860;28;20514;-76
2023/12/21 04:10:55;;;;;;;1.02;0.88;;;6.90;99.90;;;;;;2074675;28;20029;-76
2023/12/21 04:11:55;;;;;;;0.80;0.70;;;6.90;99.90;;;;;;2074948;28;20030;-76
2023/12/21 04:12:56;;;;;;;1.38;0.60;;;6.90;99.90;;;;;;2079483;28;20021;-76
2023/12/21 04:13:56;;;;;;;0.73;0.73;;;6.90;99.90;;;;;;2075590;28;20124;-76
2023/12/21 04:14:57;;;;;;;0.68;0.68;;;6.90;99.90;;;;;;2076440;28;20049;-75
2023/12/21 04:15:57;;;;;;;0.70;0.70;;;6.90;99.90;;;;;;2077057;28;20443;-76
2023/12/21 04:16:58;;;;;;;0.70;0.70;;;7.00;99.90;;;;;;2079566;28;20024;-76
2023/12/21 04:17:58;;;;;;;0.60;0.60;;;7.00;99.90;;;;;;2077673;28;20057;-76
2023/12/21 04:18:59;;;;;;;1.65;0.68;;;7.00;99.90;;;;;;2076663;28;20021;-76
2023/12/21 04:20:00;;;;;;;0.73;0.73;;;6.90;99.90;;;;;;2079028;28;20017;-76
2023/12/21 04:21:00;;;;;;;1.48;0.60;;;7.00;99.90;;;;;;2075667;28;20455;-77
2023/12/21 04:22:01;;;;;;;0.60;0.60;;;7.00;99.90;;;;;;2075506;28;20033;-78
2023/12/21 04:23:01;;;;;;;0.60;0.60;;;7.00;99.90;;;;;;2076076;28;20026;-75
2023/12/21 04:24:02;;;;;;;0.50;0.50;;;7.00;99.90;;;;;;2076345;28;20030;-76
2023/12/21 04:25:03;;;;;;;0.60;0.60;;;7.00;99.90;;;;;;2074486;28;20448;-76
2023/12/21 04:26:03;;;;;;;0.68;0.63;;;7.00;99.90;;;;;;2077187;28;20127;-76
2023/12/21 04:27:04;;;;;;;0.60;0.60;;;7.00;99.90;;;;;;2076733;28;20488;-77
2023/12/21 04:28:04;;;;;;;0.50;0.50;;;7.00;99.90;;;;;;2083399;28;20107;-76
2023/12/21 04:29:05;;;;;;;1.58;0.70;;;7.00;99.90;;;;;;2083298;28;20079;-75
2023/12/21 04:30:06;;;;;;;0.70;0.70;;;6.90;99.90;;;;;;2078360;28;20048;-76
2023/12/21 04:31:07;;;;;;;0.60;0.60;;;7.00;99.90;;;;;;2077052;28;20036;-75
2023/12/21 04:32:07;;;;;;;0.73;0.60;;;7.00;99.90;;;;;;2072636;28;20036;-77
2023/12/21 04:33:11;;;;;;;1.02;0.60;;;7.00;99.90;;;;;;2082935;28;20036;-76
2023/12/21 04:34:12;;;;;;;1.17;0.60;;;7.10;99.90;;;;;;2086449;28;20041;-77
2023/12/21 04:35:12;;;;;;;0.50;0.50;;;7.10;99.90;;;;;;2086584;28;20142;-76
2023/12/21 04:36:14;;;;;;;1.20;0.60;;;7.10;99.90;;;;;;2062457;28;20034;-75
2023/12/21 04:37:14;;;;;;;0.70;0.70;;;7.10;99.90;;;;;;2070323;28;20034;-74
2023/12/21 04:38:15;;;;;;;1.00;0.60;;;7.10;99.90;;;;;;2078316;28;20138;-75
2023/12/21 04:39:15;;;;;;;0.57;0.55;;;7.10;99.90;;;;;;2074882;28;20059;-77
2023/12/21 04:40:16;;;;;;;0.60;0.60;;;7.10;99.90;;;;;;2073931;28;20789;-84
2023/12/21 04:41:16;;;;;;;0.57;0.57;;;7.00;99.90;;;;;;2080347;28;20021;-84
2023/12/21 04:42:17;;;;;;;0.60;0.60;;;7.00;99.90;;;;;;2076866;28;20025;-84
2023/12/21 04:43:17;;;;;;;1.27;0.60;;;7.10;99.90;;;;;;2080018;28;20029;-81
2023/12/21 04:44:18;;;;;;;0.70;0.70;;;7.00;99.90;;;;;;2080628;28;20561;-83
2023/12/21 04:45:18;;;;;;;0.73;0.73;;;7.00;99.90;;;;;;2076853;28;20032;-82
2023/12/21 04:46:19;;;;;;;1.60;0.80;;;7.00;99.90;;;;;;2079652;28;20492;-82
2023/12/21 04:47:20;;;;;;;0.50;0.50;;;7.00;99.90;;;;;;2073173;28;20056;-83
2023/12/21 04:48:20;;;;;;;0.60;0.60;;;7.00;99.90;;;;;;2080484;28;20596;-82
2023/12/21 04:49:24;;;;;;;0.60;0.60;;;7.00;99.90;;;;;;2074943;28;20302;-83
2023/12/21 04:50:24;;;;;;;0.88;0.50;;;7.00;99.90;;;;;;2073977;28;20370;-84
2023/12/21 04:51:25;;;;;;;0.90;0.55;;;7.00;99.90;;;;;;2084841;28;20032;-84
2023/12/21 04:52:25;;;;;;;0.73;0.65;;;7.00;99.90;;;;;;2082113;28;20110;-87
2023/12/21 04:53:26;;;;;;;0.60;0.60;;;7.00;99.90;;;;;;2070760;28;20042;-82
2023/12/21 04:54:26;;;;;;;0.60;0.60;;;7.00;99.90;;;;;;2079148;28;20032;-84
2023/12/21 04:55:27;;;;;;;2.05;0.70;;;7.10;99.90;;;;;;2086496;28;20418;-82
2023/12/21 04:56:28;;;;;;;0.52;0.52;;;7.10;99.90;;;;;;2084970;28;20055;-84
2023/12/21 04:57:28;;;;;;;0.60;0.60;;;7.10;99.90;;;;;;2077588;28;20029;-84
2023/12/21 04:58:29;;;;;;;1.50;0.70;;;7.10;99.90;;;;;;2079600;28;20033;-84
2023/12/21 04:59:29;;;;;;;0.60;0.60;;;7.10;99.90;;;;;;2079841;28;20025;-83
2023/12/21 05:00:30;;;;;;;0.75;0.52;;;7.10;99.90;;;;;;2079144;28;20029;-82
2023/12/21 05:01:30;;;;;;;0.50;0.50;;;7.20;99.90;;;;;;2072162;28;20503;-81
2023/12/21 05:02:31;;;;;;;0.75;0.68;;;7.10;99.90;;;;;;2062192;28;20034;-82
2023/12/21 05:03:31;;;;;;;0.73;0.60;;;7.20;99.90;;;;;;2077321;28;20482;-82
2023/12/21 05:04:32;;;;;;;1.08;0.60;;;7.20;99.90;;;;;;2080715;28;20063;-83
2023/12/21 05:05:33;;;;;;;0.50;0.50;;;7.20;99.90;;;;;;2078357;28;20056;-82
2023/12/21 05:06:33;;;;;;;0.70;0.50;;;7.20;99.90;;;;;;2080316;28;20035;-84
2023/12/21 05:07:34;;;;;;;0.60;0.60;;;7.20;99.90;;;;;;2090025;28;20036;-85
2023/12/21 05:08:34;;;;;;;0.68;0.60;;;7.20;99.90;;;;;;2081038;28;20476;-82
2023/12/21 05:09:35;;;;;;;0.60;0.60;;;7.20;99.90;;;;;;2087465;28;20127;-81
2023/12/21 05:10:36;;;;;;;0.60;0.60;;;7.20;99.90;;;;;;2078192;28;20025;-83
2023/12/21 05:11:36;;;;;;;0.75;0.70;;;7.20;99.90;;;;;;2084225;28;20029;-82
2023/12/21 05:12:37;;;;;;;1.25;0.63;;;7.20;99.90;;;;;;2080033;28;20047;-81
2023/12/21 05:13:37;;;;;;;0.88;0.60;;;7.20;99.90;;;;;;2085516;28;20594;-80
2023/12/21 05:14:38;;;;;;;1.35;0.70;;;7.20;99.90;;;;;;2079860;28;20480;-81
2023/12/21 05:15:39;;;;;;;0.73;0.70;;;7.20;99.90;;;;;;2078828;28;20074;-82
2023/12/21 05:16:39;;;;;;;0.63;0.63;;;7.20;99.90;;;;;;2069129;28;20045;-85
2023/12/21 05:17:40;;;;;;;3.13;0.70;;;7.20;99.90;;;;;;2070787;28;20042;-84
2023/12/21 05:18:41;;;;;;;0.90;0.90;;;7.20;99.90;;;;;;2085208;28;20028;-83
2023/12/21 05:19:42;;;;;;;1.02;0.70;;;7.30;99.90;;;;;;2091604;28;20428;-83
2023/12/21 05:20:42;;;;;;;0.52;0.52;;;7.30;99.90;;;;;;2089324;28;20076;-82